Arnold, Nebraska
Current Conditions -  °F | °C
As of 10:53 PM on Saturday 22 Nov 2014 (Local Time) from KBBW Reporting Station
Broken Clouds Broken Clouds  
Wind Chill:   Ceiling: 11000
Heat Index:   Visibility: 10mi
Dew Point: -1°   Wind: 3mph
Humidity: 56%   Direction: 10°N
Pressure: 29.51"   Gusts: NA
Location:  41.42°N, 100.19°W
Report Text: KBBW 230453Z AUTO 01003KT 10SM BKN110 08/M01 A2951 RMK AO2 SLP992 T00781006 PWINO $
Loading
Personal Weather Stations






























Interactive Weather Map New forecast layout! Learn more

10-Day Weather Forecast

Advertisements
Track Severe Weather on mobile